sensor_id;sensor_type;location;lat;lon;timestamp;P1;durP1;ratioP1;P2;durP2;ratioP2
23531;SDS011;11943;52.270;20.978;2023-07-22T00:01:23;10.75;;;7.75;;
23531;SDS011;11943;52.270;20.978;2023-07-22T00:03:49;8.48;;;7.40;;
23531;SDS011;11943;52.270;20.978;2023-07-22T00:06:14;10.85;;;6.95;;
23531;SDS011;11943;52.270;20.978;2023-07-22T00:08:40;11.80;;;6.75;;
23531;SDS011;11943;52.270;20.978;2023-07-22T00:11:06;7.07;;;6.20;;
23531;SDS011;11943;52.270;20.978;2023-07-22T00:13:32;11.68;;;5.97;;
23531;SDS011;11943;52.270;20.978;2023-07-22T00:15:59;6.60;;;6.00;;
23531;SDS011;11943;52.270;20.978;2023-07-22T00:18:25;6.65;;;5.95;;
23531;SDS011;11943;52.270;20.978;2023-07-22T00:20:55;7.45;;;6.57;;
23531;SDS011;11943;52.270;20.978;2023-07-22T00:23:22;7.53;;;5.38;;
23531;SDS011;11943;52.270;20.978;2023-07-22T00:25:48;6.72;;;5.65;;
23531;SDS011;11943;52.270;20.978;2023-07-22T00:28:14;6.20;;;5.43;;
23531;SDS011;11943;52.270;20.978;2023-07-22T00:30:40;5.82;;;5.22;;
23531;SDS011;11943;52.270;20.978;2023-07-22T00:33:06;7.65;;;5.72;;
23531;SDS011;11943;52.270;20.978;2023-07-22T00:35:33;6.20;;;5.50;;
23531;SDS011;11943;52.270;20.978;2023-07-22T00:38:00;6.25;;;5.45;;
23531;SDS011;11943;52.270;20.978;2023-07-22T00:40:26;6.35;;;5.72;;
23531;SDS011;11943;52.270;20.978;2023-07-22T00:42:52;8.32;;;6.25;;
23531;SDS011;11943;52.270;20.978;2023-07-22T00:45:17;6.22;;;5.63;;
23531;SDS011;11943;52.270;20.978;2023-07-22T00:47:43;10.82;;;5.63;;
23531;SDS011;11943;52.270;20.978;2023-07-22T00:50:10;9.67;;;5.20;;
23531;SDS011;11943;52.270;20.978;2023-07-22T00:52:36;7.85;;;5.40;;
23531;SDS011;11943;52.270;20.978;2023-07-22T00:55:03;6.55;;;5.82;;
23531;SDS011;11943;52.270;20.978;2023-07-22T00:57:30;7.53;;;5.95;;
23531;SDS011;11943;52.270;20.978;2023-07-22T00:59:56;6.65;;;5.95;;
23531;SDS011;11943;52.270;20.978;2023-07-22T01:02:22;9.30;;;6.88;;
23531;SDS011;11943;52.270;20.978;2023-07-22T01:04:48;7.18;;;6.47;;
23531;SDS011;11943;52.270;20.978;2023-07-22T01:07:16;9.98;;;6.68;;
23531;SDS011;11943;52.270;20.978;2023-07-22T01:09:43;7.28;;;6.55;;
23531;SDS011;11943;52.270;20.978;2023-07-22T01:12:09;7.88;;;6.45;;
23531;SDS011;11943;52.270;20.978;2023-07-22T01:14:36;7.07;;;6.38;;
23531;SDS011;11943;52.270;20.978;2023-07-22T01:17:04;10.57;;;6.60;;
23531;SDS011;11943;52.270;20.978;2023-07-22T01:19:31;6.95;;;6.25;;
23531;SDS011;11943;52.270;20.978;2023-07-22T01:22:01;11.23;;;6.93;;
23531;SDS011;11943;52.270;20.978;2023-07-22T01:24:29;8.75;;;6.82;;
23531;SDS011;11943;52.270;20.978;2023-07-22T01:26:55;7.57;;;6.28;;
23531;SDS011;11943;52.270;20.978;2023-07-22T01:29:21;9.70;;;7.47;;
23531;SDS011;11943;52.270;20.978;2023-07-22T01:31:49;9.95;;;8.23;;
23531;SDS011;11943;52.270;20.978;2023-07-22T01:34:16;9.65;;;7.80;;
23531;SDS011;11943;52.270;20.978;2023-07-22T01:36:42;9.65;;;8.48;;
23531;SDS011;11943;52.270;20.978;2023-07-22T01:39:08;16.55;;;8.68;;
23531;SDS011;11943;52.270;20.978;2023-07-22T01:44:01;11.93;;;7.55;;
23531;SDS011;11943;52.270;20.978;2023-07-22T01:46:27;9.90;;;8.05;;
23531;SDS011;11943;52.270;20.978;2023-07-22T01:48:53;10.60;;;8.90;;
23531;SDS011;11943;52.270;20.978;2023-07-22T01:51:20;10.38;;;8.52;;
23531;SDS011;11943;52.270;20.978;2023-07-22T01:53:45;10.38;;;8.45;;
23531;SDS011;11943;52.270;20.978;2023-07-22T01:56:11;12.00;;;8.70;;
23531;SDS011;11943;52.270;20.978;2023-07-22T01:58:37;11.02;;;8.63;;
23531;SDS011;11943;52.270;20.978;2023-07-22T02:01:02;10.15;;;8.15;;
23531;SDS011;11943;52.270;20.978;2023-07-22T02:03:28;10.07;;;8.35;;
23531;SDS011;11943;52.270;20.978;2023-07-22T02:06:00;9.75;;;8.10;;
23531;SDS011;11943;52.270;20.978;2023-07-22T02:08:27;10.18;;;9.07;;
23531;SDS011;11943;52.270;20.978;2023-07-22T02:10:52;11.50;;;7.57;;
23531;SDS011;11943;52.270;20.978;2023-07-22T02:13:18;8.68;;;7.45;;
23531;SDS011;11943;52.270;20.978;2023-07-22T02:15:44;10.05;;;7.85;;
23531;SDS011;11943;52.270;20.978;2023-07-22T02:18:09;10.35;;;8.18;;
23531;SDS011;11943;52.270;20.978;2023-07-22T02:20:35;9.80;;;8.43;;
23531;SDS011;11943;52.270;20.978;2023-07-22T02:23:00;11.07;;;7.57;;
23531;SDS011;11943;52.270;20.978;2023-07-22T02:25:26;8.95;;;7.45;;
23531;SDS011;11943;52.270;20.978;2023-07-22T02:27:52;10.27;;;7.60;;
23531;SDS011;11943;52.270;20.978;2023-07-22T02:30:17;8.60;;;7.72;;
23531;SDS011;11943;52.270;20.978;2023-07-22T02:32:44;8.20;;;7.40;;
23531;SDS011;11943;52.270;20.978;2023-07-22T02:35:10;9.18;;;8.27;;
23531;SDS011;11943;52.270;20.978;2023-07-22T02:37:37;10.00;;;7.88;;
23531;SDS011;11943;52.270;20.978;2023-07-22T02:40:03;9.50;;;7.72;;
23531;SDS011;11943;52.270;20.978;2023-07-22T02:42:39;10.35;;;8.30;;
23531;SDS011;11943;52.270;20.978;2023-07-22T02:45:05;10.07;;;9.07;;
23531;SDS011;11943;52.270;20.978;2023-07-22T02:47:32;13.13;;;8.80;;
23531;SDS011;11943;52.270;20.978;2023-07-22T02:49:59;11.65;;;9.52;;
23531;SDS011;11943;52.270;20.978;2023-07-22T02:52:25;13.20;;;8.68;;
23531;SDS011;11943;52.270;20.978;2023-07-22T02:55:03;13.32;;;9.25;;
23531;SDS011;11943;52.270;20.978;2023-07-22T02:57:33;10.73;;;9.48;;
23531;SDS011;11943;52.270;20.978;2023-07-22T03:00:00;10.80;;;9.60;;
23531;SDS011;11943;52.270;20.978;2023-07-22T03:02:30;12.88;;;9.50;;
23531;SDS011;11943;52.270;20.978;2023-07-22T03:04:55;12.90;;;9.60;;
23531;SDS011;11943;52.270;20.978;2023-07-22T03:07:21;11.52;;;9.80;;
23531;SDS011;11943;52.270;20.978;2023-07-22T03:09:47;13.75;;;9.00;;
23531;SDS011;11943;52.270;20.978;2023-07-22T03:12:12;11.95;;;10.05;;
23531;SDS011;11943;52.270;20.978;2023-07-22T03:14:38;10.68;;;9.57;;
23531;SDS011;11943;52.270;20.978;2023-07-22T03:17:03;12.48;;;10.35;;
23531;SDS011;11943;52.270;20.978;2023-07-22T03:19:29;14.02;;;10.35;;
23531;SDS011;11943;52.270;20.978;2023-07-22T03:21:55;12.25;;;9.82;;
23531;SDS011;11943;52.270;20.978;2023-07-22T03:24:20;11.38;;;9.75;;
23531;SDS011;11943;52.270;20.978;2023-07-22T03:26:46;14.60;;;9.30;;
23531;SDS011;11943;52.270;20.978;2023-07-22T03:29:12;11.13;;;10.02;;
23531;SDS011;11943;52.270;20.978;2023-07-22T03:31:37;13.57;;;10.57;;
23531;SDS011;11943;52.270;20.978;2023-07-22T03:34:04;11.18;;;10.02;;
23531;SDS011;11943;52.270;20.978;2023-07-22T03:36:29;11.02;;;9.95;;
23531;SDS011;11943;52.270;20.978;2023-07-22T03:38:58;11.07;;;9.93;;
23531;SDS011;11943;52.270;20.978;2023-07-22T03:41:24;12.55;;;10.38;;
23531;SDS011;11943;52.270;20.978;2023-07-22T03:43:50;11.18;;;9.50;;
23531;SDS011;11943;52.270;20.978;2023-07-22T03:46:16;11.52;;;10.32;;
23531;SDS011;11943;52.270;20.978;2023-07-22T03:48:41;10.50;;;9.43;;
23531;SDS011;11943;52.270;20.978;2023-07-22T03:51:07;13.27;;;9.75;;
23531;SDS011;11943;52.270;20.978;2023-07-22T03:53:33;10.65;;;9.55;;
23531;SDS011;11943;52.270;20.978;2023-07-22T03:55:58;10.20;;;9.20;;
23531;SDS011;11943;52.270;20.978;2023-07-22T03:58:24;10.02;;;8.93;;
23531;SDS011;11943;52.270;20.978;2023-07-22T04:00:49;9.63;;;8.57;;
23531;SDS011;11943;52.270;20.978;2023-07-22T04:03:15;9.70;;;8.70;;
23531;SDS011;11943;52.270;20.978;2023-07-22T04:05:41;11.18;;;8.23;;
23531;SDS011;11943;52.270;20.978;2023-07-22T04:08:06;16.70;;;8.40;;
23531;SDS011;11943;52.270;20.978;2023-07-22T04:10:32;10.40;;;7.88;;
23531;SDS011;11943;52.270;20.978;2023-07-22T04:12:58;10.48;;;7.72;;
23531;SDS011;11943;52.270;20.978;2023-07-22T04:15:23;10.82;;;7.75;;
23531;SDS011;11943;52.270;20.978;2023-07-22T04:17:49;9.15;;;7.55;;
23531;SDS011;11943;52.270;20.978;2023-07-22T04:20:14;9.35;;;7.85;;
23531;SDS011;11943;52.270;20.978;2023-07-22T04:22:41;9.25;;;7.80;;
23531;SDS011;11943;52.270;20.978;2023-07-22T04:25:07;9.10;;;7.53;;
23531;SDS011;11943;52.270;20.978;2023-07-22T04:27:33;9.80;;;7.85;;
23531;SDS011;11943;52.270;20.978;2023-07-22T04:29:59;9.50;;;7.72;;
23531;SDS011;11943;52.270;20.978;2023-07-22T04:32:25;10.75;;;7.55;;
23531;SDS011;11943;52.270;20.978;2023-07-22T04:34:51;12.75;;;8.10;;
23531;SDS011;11943;52.270;20.978;2023-07-22T04:37:16;9.38;;;7.93;;
23531;SDS011;11943;52.270;20.978;2023-07-22T04:39:42;12.27;;;8.02;;
23531;SDS011;11943;52.270;20.978;2023-07-22T04:42:13;9.60;;;7.63;;
23531;SDS011;11943;52.270;20.978;2023-07-22T04:44:38;9.85;;;8.75;;
23531;SDS011;11943;52.270;20.978;2023-07-22T04:47:06;9.52;;;8.27;;
23531;SDS011;11943;52.270;20.978;2023-07-22T04:49:31;10.38;;;9.13;;
23531;SDS011;11943;52.270;20.978;2023-07-22T04:51:57;10.80;;;9.13;;
23531;SDS011;11943;52.270;20.978;2023-07-22T04:54:23;12.15;;;9.20;;
23531;SDS011;11943;52.270;20.978;2023-07-22T04:56:48;11.65;;;9.23;;
23531;SDS011;11943;52.270;20.978;2023-07-22T04:59:14;20.02;;;9.52;;
23531;SDS011;11943;52.270;20.978;2023-07-22T05:01:40;11.02;;;9.82;;
23531;SDS011;11943;52.270;20.978;2023-07-22T05:04:06;14.23;;;9.80;;
23531;SDS011;11943;52.270;20.978;2023-07-22T05:06:32;11.85;;;10.65;;
23531;SDS011;11943;52.270;20.978;2023-07-22T05:08:58;12.82;;;9.75;;
23531;SDS011;11943;52.270;20.978;2023-07-22T05:11:24;14.07;;;9.63;;
23531;SDS011;11943;52.270;20.978;2023-07-22T05:13:49;12.63;;;10.65;;
23531;SDS011;11943;52.270;20.978;2023-07-22T05:16:15;13.77;;;10.23;;
23531;SDS011;11943;52.270;20.978;2023-07-22T05:18:41;10.75;;;9.70;;
23531;SDS011;11943;52.270;20.978;2023-07-22T05:21:06;11.23;;;10.02;;
23531;SDS011;11943;52.270;20.978;2023-07-22T05:23:33;16.98;;;10.50;;
23531;SDS011;11943;52.270;20.978;2023-07-22T05:25:58;16.23;;;9.90;;
23531;SDS011;11943;52.270;20.978;2023-07-22T05:28:24;15.98;;;10.00;;
23531;SDS011;11943;52.270;20.978;2023-07-22T05:30:50;11.20;;;10.00;;
23531;SDS011;11943;52.270;20.978;2023-07-22T05:33:15;14.85;;;10.07;;
23531;SDS011;11943;52.270;20.978;2023-07-22T05:35:41;12.52;;;10.30;;
23531;SDS011;11943;52.270;20.978;2023-07-22T05:38:07;14.30;;;9.40;;
23531;SDS011;11943;52.270;20.978;2023-07-22T05:40:32;12.65;;;10.15;;
23531;SDS011;11943;52.270;20.978;2023-07-22T05:42:58;10.55;;;8.48;;
23531;SDS011;11943;52.270;20.978;2023-07-22T05:45:24;10.10;;;9.10;;
23531;SDS011;11943;52.270;20.978;2023-07-22T05:47:49;13.05;;;9.13;;
23531;SDS011;11943;52.270;20.978;2023-07-22T05:50:15;11.73;;;8.65;;
23531;SDS011;11943;52.270;20.978;2023-07-22T05:52:40;11.07;;;8.50;;
23531;SDS011;11943;52.270;20.978;2023-07-22T05:55:06;10.48;;;8.55;;
23531;SDS011;11943;52.270;20.978;2023-07-22T05:57:32;14.90;;;7.85;;
23531;SDS011;11943;52.270;20.978;2023-07-22T05:59:58;8.85;;;7.43;;
23531;SDS011;11943;52.270;20.978;2023-07-22T06:02:23;8.93;;;7.55;;
23531;SDS011;11943;52.270;20.978;2023-07-22T06:04:49;9.25;;;7.53;;
23531;SDS011;11943;52.270;20.978;2023-07-22T06:07:14;10.75;;;7.32;;
23531;SDS011;11943;52.270;20.978;2023-07-22T06:09:40;7.95;;;7.18;;
23531;SDS011;11943;52.270;20.978;2023-07-22T06:12:06;9.82;;;7.57;;
23531;SDS011;11943;52.270;20.978;2023-07-22T06:14:32;7.57;;;6.63;;
23531;SDS011;11943;52.270;20.978;2023-07-22T06:16:57;7.72;;;7.03;;
23531;SDS011;11943;52.270;20.978;2023-07-22T06:19:23;10.68;;;6.85;;
23531;SDS011;11943;52.270;20.978;2023-07-22T06:21:49;8.10;;;7.10;;
23531;SDS011;11943;52.270;20.978;2023-07-22T06:24:14;6.68;;;5.93;;
23531;SDS011;11943;52.270;20.978;2023-07-22T06:26:41;8.93;;;6.05;;
23531;SDS011;11943;52.270;20.978;2023-07-22T06:29:06;9.90;;;5.90;;
23531;SDS011;11943;52.270;20.978;2023-07-22T06:31:32;15.18;;;5.97;;
23531;SDS011;11943;52.270;20.978;2023-07-22T06:33:58;8.15;;;5.50;;
23531;SDS011;11943;52.270;20.978;2023-07-22T06:36:24;6.00;;;5.00;;
23531;SDS011;11943;52.270;20.978;2023-07-22T06:38:50;7.18;;;4.72;;
23531;SDS011;11943;52.270;20.978;2023-07-22T06:41:16;5.63;;;4.90;;
23531;SDS011;11943;52.270;20.978;2023-07-22T06:43:42;6.40;;;4.60;;
23531;SDS011;11943;52.270;20.978;2023-07-22T06:46:08;4.60;;;4.18;;
23531;SDS011;11943;52.270;20.978;2023-07-22T06:48:34;6.78;;;4.05;;
23531;SDS011;11943;52.270;20.978;2023-07-22T06:50:59;5.07;;;4.10;;
23531;SDS011;11943;52.270;20.978;2023-07-22T06:53:25;3.33;;;3.03;;
23531;SDS011;11943;52.270;20.978;2023-07-22T06:55:51;3.28;;;2.97;;
23531;SDS011;11943;52.270;20.978;2023-07-22T06:58:20;3.60;;;3.13;;
23531;SDS011;11943;52.270;20.978;2023-07-22T07:00:47;3.22;;;2.92;;
23531;SDS011;11943;52.270;20.978;2023-07-22T07:03:17;4.28;;;3.00;;
23531;SDS011;11943;52.270;20.978;2023-07-22T07:05:43;6.25;;;2.88;;
23531;SDS011;11943;52.270;20.978;2023-07-22T07:08:09;3.83;;;2.80;;
23531;SDS011;11943;52.270;20.978;2023-07-22T07:10:38;4.18;;;3.15;;
23531;SDS011;11943;52.270;20.978;2023-07-22T07:13:07;5.70;;;3.08;;
23531;SDS011;11943;52.270;20.978;2023-07-22T07:15:34;4.95;;;3.03;;
23531;SDS011;11943;52.270;20.978;2023-07-22T07:17:59;5.32;;;3.13;;
23531;SDS011;11943;52.270;20.978;2023-07-22T07:20:25;3.65;;;3.30;;
23531;SDS011;11943;52.270;20.978;2023-07-22T07:22:51;3.80;;;3.42;;
23531;SDS011;11943;52.270;20.978;2023-07-22T07:25:17;5.47;;;3.40;;
23531;SDS011;11943;52.270;20.978;2023-07-22T07:27:42;7.35;;;3.63;;
23531;SDS011;11943;52.270;20.978;2023-07-22T07:30:08;4.32;;;3.47;;
23531;SDS011;11943;52.270;20.978;2023-07-22T07:32:35;7.45;;;3.25;;
23531;SDS011;11943;52.270;20.978;2023-07-22T07:35:01;7.95;;;3.58;;
23531;SDS011;11943;52.270;20.978;2023-07-22T07:37:29;6.05;;;3.65;;
23531;SDS011;11943;52.270;20.978;2023-07-22T07:39:54;4.32;;;3.65;;
23531;SDS011;11943;52.270;20.978;2023-07-22T07:42:24;9.07;;;3.40;;
23531;SDS011;11943;52.270;20.978;2023-07-22T07:44:53;6.50;;;3.67;;
23531;SDS011;11943;52.270;20.978;2023-07-22T07:47:19;6.07;;;3.47;;
23531;SDS011;11943;52.270;20.978;2023-07-22T07:49:45;6.97;;;3.50;;
23531;SDS011;11943;52.270;20.978;2023-07-22T07:52:11;3.83;;;3.10;;
23531;SDS011;11943;52.270;20.978;2023-07-22T07:54:37;5.45;;;3.30;;
23531;SDS011;11943;52.270;20.978;2023-07-22T07:57:03;4.03;;;2.47;;
23531;SDS011;11943;52.270;20.978;2023-07-22T07:59:29;3.60;;;2.65;;
23531;SDS011;11943;52.270;20.978;2023-07-22T08:01:54;5.05;;;2.70;;
23531;SDS011;11943;52.270;20.978;2023-07-22T08:04:20;6.70;;;2.28;;
23531;SDS011;11943;52.270;20.978;2023-07-22T08:06:45;2.72;;;2.20;;
23531;SDS011;11943;52.270;20.978;2023-07-22T08:09:11;6.45;;;2.50;;
23531;SDS011;11943;52.270;20.978;2023-07-22T08:11:43;5.78;;;2.70;;
23531;SDS011;11943;52.270;20.978;2023-07-22T08:14:09;4.93;;;2.33;;
23531;SDS011;11943;52.270;20.978;2023-07-22T08:16:35;2.65;;;2.35;;
23531;SDS011;11943;52.270;20.978;2023-07-22T08:19:01;3.97;;;2.30;;
23531;SDS011;11943;52.270;20.978;2023-07-22T08:21:26;4.80;;;1.90;;
23531;SDS011;11943;52.270;20.978;2023-07-22T08:23:52;3.25;;;2.22;;
23531;SDS011;11943;52.270;20.978;2023-07-22T08:26:17;3.88;;;2.03;;
23531;SDS011;11943;52.270;20.978;2023-07-22T08:28:46;2.75;;;2.05;;
23531;SDS011;11943;52.270;20.978;2023-07-22T08:31:12;4.97;;;2.10;;
23531;SDS011;11943;52.270;20.978;2023-07-22T08:33:38;5.20;;;1.85;;
23531;SDS011;11943;52.270;20.978;2023-07-22T08:36:03;2.97;;;1.90;;
23531;SDS011;11943;52.270;20.978;2023-07-22T08:38:30;2.88;;;1.50;;
23531;SDS011;11943;52.270;20.978;2023-07-22T08:40:56;6.97;;;2.05;;
23531;SDS011;11943;52.270;20.978;2023-07-22T08:43:22;3.17;;;1.83;;
23531;SDS011;11943;52.270;20.978;2023-07-22T08:45:49;6.27;;;1.80;;
23531;SDS011;11943;52.270;20.978;2023-07-22T08:48:19;2.05;;;1.70;;
23531;SDS011;11943;52.270;20.978;2023-07-22T08:53:25;5.68;;;2.33;;
23531;SDS011;11943;52.270;20.978;2023-07-22T08:55:51;3.70;;;1.77;;
23531;SDS011;11943;52.270;20.978;2023-07-22T08:58:18;2.47;;;1.92;;
23531;SDS011;11943;52.270;20.978;2023-07-22T09:00:44;2.50;;;1.98;;
23531;SDS011;11943;52.270;20.978;2023-07-22T09:03:11;3.65;;;2.00;;
23531;SDS011;11943;52.270;20.978;2023-07-22T09:05:36;3.25;;;2.20;;
23531;SDS011;11943;52.270;20.978;2023-07-22T09:08:03;3.83;;;2.35;;
23531;SDS011;11943;52.270;20.978;2023-07-22T09:10:30;3.78;;;2.30;;
23531;SDS011;11943;52.270;20.978;2023-07-22T09:12:56;4.00;;;1.97;;
23531;SDS011;11943;52.270;20.978;2023-07-22T09:15:23;2.53;;;2.07;;
23531;SDS011;11943;52.270;20.978;2023-07-22T09:17:49;5.63;;;2.50;;
23531;SDS011;11943;52.270;20.978;2023-07-22T09:20:15;5.47;;;2.42;;
23531;SDS011;11943;52.270;20.978;2023-07-22T09:22:45;3.58;;;2.47;;
23531;SDS011;11943;52.270;20.978;2023-07-22T09:25:17;6.03;;;2.63;;
23531;SDS011;11943;52.270;20.978;2023-07-22T09:27:43;3.80;;;2.28;;
23531;SDS011;11943;52.270;20.978;2023-07-22T09:32:58;2.40;;;2.17;;
23531;SDS011;11943;52.270;20.978;2023-07-22T09:35:27;2.65;;;2.08;;
23531;SDS011;11943;52.270;20.978;2023-07-22T09:37:58;3.63;;;2.10;;
23531;SDS011;11943;52.270;20.978;2023-07-22T09:40:25;4.90;;;1.98;;
23531;SDS011;11943;52.270;20.978;2023-07-22T09:42:52;2.58;;;2.13;;
23531;SDS011;11943;52.270;20.978;2023-07-22T09:45:21;11.40;;;2.60;;
23531;SDS011;11943;52.270;20.978;2023-07-22T09:47:48;4.13;;;1.67;;
23531;SDS011;11943;52.270;20.978;2023-07-22T09:50:16;7.57;;;1.95;;
23531;SDS011;11943;52.270;20.978;2023-07-22T09:52:47;7.00;;;2.38;;
23531;SDS011;11943;52.270;20.978;2023-07-22T09:55:23;2.75;;;1.42;;
23531;SDS011;11943;52.270;20.978;2023-07-22T10:00:29;3.90;;;1.90;;
23531;SDS011;11943;52.270;20.978;2023-07-22T10:02:56;5.75;;;1.77;;
23531;SDS011;11943;52.270;20.978;2023-07-22T10:07:50;4.70;;;2.08;;
23531;SDS011;11943;52.270;20.978;2023-07-22T10:10:21;3.78;;;1.70;;
23531;SDS011;11943;52.270;20.978;2023-07-22T10:12:50;4.70;;;1.60;;
23531;SDS011;11943;52.270;20.978;2023-07-22T10:15:16;2.85;;;1.70;;
23531;SDS011;11943;52.270;20.978;2023-07-22T10:17:45;3.17;;;1.25;;
23531;SDS011;11943;52.270;20.978;2023-07-22T10:20:12;1.70;;;1.42;;
23531;SDS011;11943;52.270;20.978;2023-07-22T10:22:45;1.52;;;1.40;;
23531;SDS011;11943;52.270;20.978;2023-07-22T10:25:17;1.65;;;1.23;;
23531;SDS011;11943;52.270;20.978;2023-07-22T10:27:44;2.05;;;1.40;;
23531;SDS011;11943;52.270;20.978;2023-07-22T10:30:12;1.73;;;1.30;;
23531;SDS011;11943;52.270;20.978;2023-07-22T10:32:40;2.10;;;1.27;;
23531;SDS011;11943;52.270;20.978;2023-07-22T10:35:07;1.58;;;1.40;;
23531;SDS011;11943;52.270;20.978;2023-07-22T10:37:40;2.05;;;1.27;;
23531;SDS011;11943;52.270;20.978;2023-07-22T10:40:25;1.40;;;1.30;;
23531;SDS011;11943;52.270;20.978;2023-07-22T10:45:29;1.98;;;1.30;;
23531;SDS011;11943;52.270;20.978;2023-07-22T10:48:02;2.20;;;1.40;;
23531;SDS011;11943;52.270;20.978;2023-07-22T10:50:42;2.15;;;1.40;;
23531;SDS011;11943;52.270;20.978;2023-07-22T10:53:11;2.33;;;1.30;;
23531;SDS011;11943;52.270;20.978;2023-07-22T10:58:30;3.97;;;1.30;;
23531;SDS011;11943;52.270;20.978;2023-07-22T11:01:05;2.50;;;1.40;;
23531;SDS011;11943;52.270;20.978;2023-07-22T11:04:05;3.80;;;1.30;;
23531;SDS011;11943;52.270;20.978;2023-07-22T11:06:31;1.67;;;1.40;;
23531;SDS011;11943;52.270;20.978;2023-07-22T11:08:57;2.38;;;1.50;;
23531;SDS011;11943;52.270;20.978;2023-07-22T11:11:38;2.20;;;1.42;;
23531;SDS011;11943;52.270;20.978;2023-07-22T11:14:19;1.40;;;1.27;;
23531;SDS011;11943;52.270;20.978;2023-07-22T11:16:46;4.40;;;1.58;;
23531;SDS011;11943;52.270;20.978;2023-07-22T11:19:16;2.38;;;1.30;;
23531;SDS011;11943;52.270;20.978;2023-07-22T11:21:44;1.63;;;1.20;;
23531;SDS011;11943;52.270;20.978;2023-07-22T11:24:10;3.35;;;1.38;;
23531;SDS011;11943;52.270;20.978;2023-07-22T11:26:36;4.38;;;1.83;;
23531;SDS011;11943;52.270;20.978;2023-07-22T11:29:03;1.60;;;1.50;;
23531;SDS011;11943;52.270;20.978;2023-07-22T11:31:37;4.85;;;1.70;;
23531;SDS011;11943;52.270;20.978;2023-07-22T11:34:10;2.95;;;1.35;;
23531;SDS011;11943;52.270;20.978;2023-07-22T11:36:36;7.05;;;1.73;;
23531;SDS011;11943;52.270;20.978;2023-07-22T11:39:03;3.72;;;1.40;;
23531;SDS011;11943;52.270;20.978;2023-07-22T11:41:33;2.83;;;1.50;;
23531;SDS011;11943;52.270;20.978;2023-07-22T11:43:59;2.47;;;1.60;;
23531;SDS011;11943;52.270;20.978;2023-07-22T11:46:26;3.13;;;1.80;;
23531;SDS011;11943;52.270;20.978;2023-07-22T11:48:53;3.00;;;1.57;;
23531;SDS011;11943;52.270;20.978;2023-07-22T11:51:20;2.47;;;1.40;;
23531;SDS011;11943;52.270;20.978;2023-07-22T11:53:48;2.28;;;1.40;;
23531;SDS011;11943;52.270;20.978;2023-07-22T11:56:25;2.63;;;1.50;;
23531;SDS011;11943;52.270;20.978;2023-07-22T11:58:52;1.77;;;1.67;;
23531;SDS011;11943;52.270;20.978;2023-07-22T12:01:19;1.40;;;1.30;;
23531;SDS011;11943;52.270;20.978;2023-07-22T12:03:45;2.47;;;1.52;;
23531;SDS011;11943;52.270;20.978;2023-07-22T12:06:12;1.67;;;1.50;;
23531;SDS011;11943;52.270;20.978;2023-07-22T12:08:44;3.35;;;1.55;;
23531;SDS011;11943;52.270;20.978;2023-07-22T12:11:21;4.47;;;1.52;;
23531;SDS011;11943;52.270;20.978;2023-07-22T12:16:37;2.13;;;1.67;;
23531;SDS011;11943;52.270;20.978;2023-07-22T12:19:04;1.75;;;1.20;;
23531;SDS011;11943;52.270;20.978;2023-07-22T12:21:31;1.77;;;1.50;;
23531;SDS011;11943;52.270;20.978;2023-07-22T12:23:57;1.40;;;1.30;;
23531;SDS011;11943;52.270;20.978;2023-07-22T12:26:23;2.55;;;1.40;;
23531;SDS011;11943;52.270;20.978;2023-07-22T12:28:49;2.15;;;1.60;;
23531;SDS011;11943;52.270;20.978;2023-07-22T12:31:14;5.57;;;1.55;;
23531;SDS011;11943;52.270;20.978;2023-07-22T12:33:40;2.20;;;1.83;;
23531;SDS011;11943;52.270;20.978;2023-07-22T12:36:06;2.17;;;1.92;;
23531;SDS011;11943;52.270;20.978;2023-07-22T12:38:32;1.42;;;1.23;;
23531;SDS011;11943;52.270;20.978;2023-07-22T12:40:57;2.35;;;1.58;;
23531;SDS011;11943;52.270;20.978;2023-07-22T12:43:23;3.17;;;1.50;;
23531;SDS011;11943;52.270;20.978;2023-07-22T12:45:49;2.30;;;1.50;;
23531;SDS011;11943;52.270;20.978;2023-07-22T12:48:15;1.63;;;1.50;;
23531;SDS011;11943;52.270;20.978;2023-07-22T12:50:42;1.70;;;1.45;;
23531;SDS011;11943;52.270;20.978;2023-07-22T12:53:08;1.92;;;1.23;;
23531;SDS011;11943;52.270;20.978;2023-07-22T12:55:34;2.20;;;1.67;;
23531;SDS011;11943;52.270;20.978;2023-07-22T12:57:59;3.55;;;1.70;;
23531;SDS011;11943;52.270;20.978;2023-07-22T13:00:25;4.15;;;1.60;;
23531;SDS011;11943;52.270;20.978;2023-07-22T13:02:51;2.33;;;1.40;;
23531;SDS011;11943;52.270;20.978;2023-07-22T13:05:17;2.72;;;1.50;;
23531;SDS011;11943;52.270;20.978;2023-07-22T13:07:43;1.70;;;1.60;;
23531;SDS011;11943;52.270;20.978;2023-07-22T13:10:09;3.65;;;1.30;;
23531;SDS011;11943;52.270;20.978;2023-07-22T13:12:37;1.65;;;1.55;;
23531;SDS011;11943;52.270;20.978;2023-07-22T13:15:03;4.78;;;1.70;;
23531;SDS011;11943;52.270;20.978;2023-07-22T13:17:29;4.03;;;1.50;;
23531;SDS011;11943;52.270;20.978;2023-07-22T13:19:56;5.68;;;1.67;;
23531;SDS011;11943;52.270;20.978;2023-07-22T13:22:21;5.28;;;1.50;;
23531;SDS011;11943;52.270;20.978;2023-07-22T13:24:47;2.33;;;1.65;;
23531;SDS011;11943;52.270;20.978;2023-07-22T13:27:13;3.38;;;1.60;;
23531;SDS011;11943;52.270;20.978;2023-07-22T13:29:38;8.25;;;1.75;;
23531;SDS011;11943;52.270;20.978;2023-07-22T13:32:04;1.85;;;1.40;;
23531;SDS011;11943;52.270;20.978;2023-07-22T13:34:31;3.05;;;1.65;;
23531;SDS011;11943;52.270;20.978;2023-07-22T13:36:56;1.65;;;1.55;;
23531;SDS011;11943;52.270;20.978;2023-07-22T13:39:22;3.42;;;1.45;;
23531;SDS011;11943;52.270;20.978;2023-07-22T13:41:48;3.85;;;1.42;;
23531;SDS011;11943;52.270;20.978;2023-07-22T13:44:15;1.70;;;1.25;;
23531;SDS011;11943;52.270;20.978;2023-07-22T13:46:41;9.45;;;1.35;;
23531;SDS011;11943;52.270;20.978;2023-07-22T13:49:07;2.88;;;1.95;;
23531;SDS011;11943;52.270;20.978;2023-07-22T13:51:32;2.15;;;1.65;;
23531;SDS011;11943;52.270;20.978;2023-07-22T13:53:58;4.35;;;1.60;;
23531;SDS011;11943;52.270;20.978;2023-07-22T13:56:24;2.33;;;2.05;;
23531;SDS011;11943;52.270;20.978;2023-07-22T13:58:49;2.28;;;1.52;;
23531;SDS011;11943;52.270;20.978;2023-07-22T14:01:15;2.45;;;1.70;;
23531;SDS011;11943;52.270;20.978;2023-07-22T14:03:41;5.90;;;1.60;;
23531;SDS011;11943;52.270;20.978;2023-07-22T14:06:07;3.67;;;1.40;;
23531;SDS011;11943;52.270;20.978;2023-07-22T14:08:33;2.72;;;1.75;;
23531;SDS011;11943;52.270;20.978;2023-07-22T14:10:59;3.28;;;1.58;;
23531;SDS011;11943;52.270;20.978;2023-07-22T14:13:25;4.30;;;1.95;;
23531;SDS011;11943;52.270;20.978;2023-07-22T14:15:50;1.80;;;1.50;;
23531;SDS011;11943;52.270;20.978;2023-07-22T14:18:16;4.53;;;1.80;;
23531;SDS011;11943;52.270;20.978;2023-07-22T14:20:45;1.70;;;1.60;;
23531;SDS011;11943;52.270;20.978;2023-07-22T14:23:11;2.03;;;1.48;;
23531;SDS011;11943;52.270;20.978;2023-07-22T14:25:37;3.50;;;1.70;;
23531;SDS011;11943;52.270;20.978;2023-07-22T14:28:03;3.80;;;1.58;;
23531;SDS011;11943;52.270;20.978;2023-07-22T14:30:29;1.83;;;1.70;;
23531;SDS011;11943;52.270;20.978;2023-07-22T14:32:54;4.22;;;1.77;;
23531;SDS011;11943;52.270;20.978;2023-07-22T14:35:20;3.03;;;2.00;;
23531;SDS011;11943;52.270;20.978;2023-07-22T14:37:46;3.58;;;1.80;;
23531;SDS011;11943;52.270;20.978;2023-07-22T14:40:12;2.30;;;1.55;;
23531;SDS011;11943;52.270;20.978;2023-07-22T14:42:38;3.67;;;1.30;;
23531;SDS011;11943;52.270;20.978;2023-07-22T14:45:05;2.40;;;1.85;;
23531;SDS011;11943;52.270;20.978;2023-07-22T14:47:32;4.68;;;1.88;;
23531;SDS011;11943;52.270;20.978;2023-07-22T14:49:58;3.50;;;1.70;;